createdAt,value
2019-03-25T00:01:36.917Z,24.90
2019-03-25T00:04:09.421Z,25.55
2019-03-25T00:09:49.501Z,24.85
2019-03-25T00:12:22.303Z,25.17
2019-03-25T00:14:54.777Z,24.02
2019-03-25T00:17:27.282Z,23.85
2019-03-25T00:19:59.758Z,23.47
2019-03-25T00:22:32.312Z,23.30
2019-03-25T00:25:05.467Z,22.22
2019-03-25T00:30:11.309Z,20.10
2019-03-25T00:32:45.298Z,17.90
2019-03-25T00:35:17.720Z,18.90
2019-03-25T00:37:50.158Z,17.05
2019-03-25T00:40:22.640Z,15.98
2019-03-25T00:42:55.302Z,13.80
2019-03-25T00:45:28.557Z,14.63
2019-03-25T00:48:01.174Z,14.25
2019-03-25T00:50:33.550Z,14.85
2019-03-25T00:53:05.965Z,15.13
2019-03-25T00:55:38.470Z,13.32
2019-03-25T01:00:43.277Z,11.95
2019-03-25T01:03:15.719Z,12.33
2019-03-25T01:05:48.334Z,11.68
2019-03-25T01:08:20.788Z,11.35
2019-03-25T01:10:53.353Z,12.33
2019-03-25T01:13:27.400Z,12.58
2019-03-25T01:18:31.478Z,11.28
2019-03-25T01:23:35.637Z,9.85
2019-03-25T01:26:08.022Z,9.38
2019-03-25T01:28:40.325Z,8.73
2019-03-25T01:31:12.887Z,7.92
2019-03-25T01:33:45.311Z,6.87
2019-03-25T01:36:17.768Z,6.65
2019-03-25T01:38:50.285Z,7.08
2019-03-25T01:41:23.026Z,6.95
2019-03-25T01:43:55.528Z,6.85
2019-03-25T01:46:27.781Z,7.25
2019-03-25T01:49:00.293Z,6.92
2019-03-25T01:51:32.713Z,6.17
2019-03-25T01:54:05.314Z,6.72
2019-03-25T01:56:37.477Z,6.20
2019-03-25T01:59:09.395Z,5.67
2019-03-25T02:01:41.710Z,7.20
2019-03-25T02:04:14.170Z,6.70
2019-03-25T02:06:46.470Z,5.85
2019-03-25T02:11:50.579Z,5.78
2019-03-25T02:14:23.006Z,4.90
2019-03-25T02:16:55.378Z,5.05
2019-03-25T02:19:28.687Z,5.37
2019-03-25T02:22:01.308Z,5.10
2019-03-25T02:24:33.766Z,5.17
2019-03-25T02:27:06.302Z,5.03
2019-03-25T02:29:38.775Z,5.72
2019-03-25T02:32:11.307Z,5.00
2019-03-25T02:34:44.295Z,4.53
2019-03-25T02:37:16.564Z,4.05
2019-03-25T02:39:48.847Z,3.95
2019-03-25T02:42:21.291Z,4.08
2019-03-25T02:44:53.621Z,3.47
2019-03-25T02:47:25.883Z,4.10
2019-03-25T02:49:58.293Z,3.22
2019-03-25T02:52:30.630Z,3.98
2019-03-25T02:55:03.027Z,3.45
2019-03-25T02:57:35.395Z,3.83
2019-03-25T03:00:10.798Z,3.55
2019-03-25T03:02:43.300Z,3.62
2019-03-25T03:05:15.251Z,4.17
2019-03-25T03:07:48.581Z,3.37
2019-03-25T03:10:21.291Z,4.45
2019-03-25T03:12:53.727Z,4.45
2019-03-25T03:15:26.291Z,4.55
2019-03-25T03:17:58.777Z,5.05
2019-03-25T03:20:30.863Z,5.35
2019-03-25T03:23:03.297Z,5.30
2019-03-25T03:25:35.791Z,5.72
2019-03-25T03:28:08.292Z,6.50
2019-03-25T03:30:40.576Z,5.28
2019-03-25T03:33:12.874Z,5.10
2019-03-25T03:35:46.696Z,5.33
2019-03-25T03:38:19.291Z,4.92
2019-03-25T03:40:52.779Z,4.53
2019-03-25T03:43:25.317Z,5.05
2019-03-25T03:45:57.745Z,4.50
2019-03-25T03:48:30.281Z,5.17
2019-03-25T03:51:05.776Z,4.80
2019-03-25T03:53:38.392Z,4.85
2019-03-25T03:56:14.222Z,4.37
2019-03-25T03:58:51.347Z,4.90
2019-03-25T04:01:21.332Z,5.03
2019-03-25T04:03:53.721Z,4.70
2019-03-25T04:06:27.319Z,3.95
2019-03-25T04:08:59.830Z,4.70
2019-03-25T04:11:32.293Z,4.53
2019-03-25T04:14:04.714Z,3.92
2019-03-25T04:16:37.288Z,4.03
2019-03-25T04:19:09.750Z,5.25
2019-03-25T04:21:42.294Z,3.85
2019-03-25T04:24:14.563Z,4.67
2019-03-25T04:26:47.020Z,4.87
2019-03-25T04:29:19.329Z,4.75
2019-03-25T04:31:51.827Z,4.85
2019-03-25T04:34:24.286Z,3.85
2019-03-25T04:36:56.618Z,4.30
2019-03-25T04:39:29.293Z,4.80
2019-03-25T04:42:01.759Z,4.67
2019-03-25T04:44:34.286Z,5.08
2019-03-25T04:47:06.761Z,5.33
2019-03-25T04:49:39.288Z,5.03
2019-03-25T04:52:11.569Z,5.40
2019-03-25T04:54:43.890Z,5.83
2019-03-25T04:57:17.784Z,7.35
2019-03-25T04:59:50.386Z,7.00
2019-03-25T05:02:22.752Z,6.95
2019-03-25T05:04:55.282Z,8.65
2019-03-25T05:07:27.636Z,8.73
2019-03-25T05:10:00.410Z,7.90
2019-03-25T05:15:05.403Z,8.55
2019-03-25T05:20:10.289Z,7.50
2019-03-25T05:22:42.712Z,7.85
2019-03-25T05:25:15.381Z,7.10
2019-03-25T05:27:47.665Z,7.53
2019-03-25T05:30:22.846Z,7.22
2019-03-25T05:32:54.289Z,8.08
2019-03-25T05:35:26.274Z,6.53
2019-03-25T05:37:58.247Z,7.40
2019-03-25T05:40:30.531Z,7.00
2019-03-25T05:43:02.810Z,7.35
2019-03-25T05:45:35.349Z,6.92
2019-03-25T05:48:07.894Z,7.60
2019-03-25T05:50:40.293Z,7.40
2019-03-25T05:53:13.309Z,6.92
2019-03-25T05:55:45.570Z,7.62
2019-03-25T05:58:19.445Z,7.45
2019-03-25T06:00:51.771Z,7.30
2019-03-25T06:03:24.286Z,8.10
2019-03-25T06:05:56.651Z,7.65
2019-03-25T06:08:29.308Z,7.33
2019-03-25T06:11:01.750Z,6.92
2019-03-25T06:13:34.288Z,7.08
2019-03-25T06:16:06.977Z,6.50
2019-03-25T06:18:40.506Z,6.78
2019-03-25T06:21:13.287Z,6.47
2019-03-25T06:23:45.571Z,6.25
2019-03-25T06:26:18.186Z,5.67
2019-03-25T06:28:50.700Z,6.28
2019-03-25T06:31:23.285Z,6.53
2019-03-25T06:33:55.677Z,6.40
2019-03-25T06:36:28.282Z,6.50
2019-03-25T06:41:34.293Z,6.22
2019-03-25T06:44:06.742Z,5.95
2019-03-25T06:46:39.282Z,6.20
2019-03-25T06:49:11.752Z,6.55
2019-03-25T06:51:45.270Z,5.33
2019-03-25T06:56:49.508Z,5.40
2019-03-25T06:59:21.789Z,5.70
2019-03-25T07:01:54.293Z,5.90
2019-03-25T07:04:26.647Z,5.83
2019-03-25T07:06:59.289Z,5.70
2019-03-25T07:09:31.648Z,6.28
2019-03-25T07:12:04.321Z,5.17
2019-03-25T07:14:37.349Z,5.35
2019-03-25T07:17:09.784Z,5.42
2019-03-25T07:19:42.291Z,5.80
2019-03-25T07:22:14.749Z,5.50
2019-03-25T07:24:47.319Z,5.62
2019-03-25T07:27:24.413Z,5.00
2019-03-25T07:32:28.357Z,5.45
2019-03-25T07:37:32.813Z,4.85
2019-03-25T07:40:09.006Z,6.12
2019-03-25T07:42:42.897Z,5.17
2019-03-25T07:45:16.309Z,4.90
2019-03-25T07:47:48.739Z,5.15
2019-03-25T07:50:24.293Z,4.87
2019-03-25T07:52:56.717Z,4.95
2019-03-25T07:55:30.316Z,5.00
2019-03-25T07:58:02.782Z,5.35
2019-03-25T08:00:35.340Z,4.55
2019-03-25T08:03:09.320Z,5.30
2019-03-25T08:05:41.727Z,5.42
2019-03-25T08:08:14.333Z,5.03
2019-03-25T08:10:48.429Z,5.58
2019-03-25T08:18:24.867Z,5.70
2019-03-25T08:20:57.317Z,5.00
2019-03-25T08:23:29.847Z,5.90
2019-03-25T08:26:02.299Z,4.72
2019-03-25T08:28:34.815Z,4.45
2019-03-25T08:31:07.299Z,4.72
2019-03-25T08:33:39.975Z,4.87
2019-03-25T08:36:12.403Z,4.92
2019-03-25T08:41:24.839Z,4.60
2019-03-25T08:44:00.148Z,4.20
2019-03-25T08:46:32.730Z,3.45
2019-03-25T08:49:05.324Z,4.00
2019-03-25T08:51:39.404Z,3.47
2019-03-25T08:56:43.327Z,3.67
2019-03-25T08:59:15.380Z,3.25
2019-03-25T09:01:47.817Z,4.05
2019-03-25T09:04:20.306Z,3.15
2019-03-25T09:06:52.653Z,3.00
2019-03-25T09:09:25.283Z,3.20
2019-03-25T09:11:57.709Z,4.25
2019-03-25T09:14:30.289Z,4.50
2019-03-25T09:17:02.766Z,4.22
2019-03-25T09:19:35.312Z,5.25
2019-03-25T09:22:08.292Z,2.90
2019-03-25T09:24:41.069Z,3.05
2019-03-25T09:27:13.599Z,2.40
2019-03-25T09:29:48.319Z,2.35
2019-03-25T09:32:20.332Z,2.85
2019-03-25T09:34:52.597Z,2.90
2019-03-25T09:37:25.035Z,2.58
2019-03-25T09:39:57.513Z,2.20
2019-03-25T09:42:30.012Z,2.35
2019-03-25T09:45:04.293Z,2.25
2019-03-25T09:47:37.952Z,2.58
2019-03-25T09:50:13.750Z,2.98
2019-03-25T09:52:46.348Z,2.35
2019-03-25T09:55:20.329Z,2.33
2019-03-25T09:57:52.711Z,2.50
2019-03-25T10:00:34.691Z,2.20
2019-03-25T10:03:07.436Z,1.92
2019-03-25T10:08:11.547Z,2.27
2019-03-25T10:10:44.315Z,3.12
2019-03-25T10:13:16.812Z,3.12
2019-03-25T10:15:49.464Z,3.25
2019-03-25T10:18:23.417Z,2.58
2019-03-25T10:21:09.265Z,2.42
2019-03-25T10:23:41.082Z,2.90
2019-03-25T10:26:13.606Z,3.05
2019-03-25T10:28:48.862Z,3.15
2019-03-25T10:31:20.350Z,3.65
2019-03-25T10:36:24.480Z,3.80
2019-03-25T10:41:28.831Z,3.22
2019-03-25T10:44:01.356Z,3.27
2019-03-25T10:46:34.858Z,4.35
2019-03-25T10:49:07.727Z,3.35
2019-03-25T10:51:40.429Z,3.85
2019-03-25T10:54:19.064Z,3.60
2019-03-25T10:56:52.289Z,3.55
2019-03-25T10:59:25.159Z,3.27
2019-03-25T11:01:57.936Z,3.90
2019-03-25T11:04:30.558Z,3.92
2019-03-25T11:07:03.398Z,3.55
2019-03-25T11:09:36.046Z,3.85
2019-03-25T11:13:55.428Z,3.58
2019-03-25T11:16:28.103Z,3.45
2019-03-25T11:19:00.734Z,3.52
2019-03-25T11:21:33.343Z,3.80
2019-03-25T11:24:05.837Z,3.30
2019-03-25T11:26:38.601Z,3.92
2019-03-25T11:29:11.301Z,3.20
2019-03-25T11:31:43.574Z,3.62
2019-03-25T11:34:16.296Z,3.58
2019-03-25T11:36:48.539Z,2.60
2019-03-25T11:39:22.300Z,3.22
2019-03-25T11:44:26.586Z,4.05
2019-03-25T11:46:59.292Z,3.47
2019-03-25T11:49:31.593Z,4.72
2019-03-25T11:52:09.306Z,3.90
2019-03-25T11:54:41.632Z,4.20
2019-03-25T11:57:14.234Z,4.22
2019-03-25T12:01:33.887Z,4.72
2019-03-25T12:04:06.485Z,4.40
2019-03-25T12:09:12.050Z,3.52
2019-03-25T12:11:44.427Z,3.75
2019-03-25T12:14:16.789Z,3.60
2019-03-25T12:16:49.292Z,3.85
2019-03-25T12:19:21.640Z,3.85
2019-03-25T12:21:54.298Z,3.70
2019-03-25T12:24:26.596Z,3.17
2019-03-25T12:26:59.287Z,3.50
2019-03-25T12:29:36.752Z,3.10
2019-03-25T12:33:27.237Z,4.05
2019-03-25T12:35:59.648Z,3.22
2019-03-25T12:38:32.283Z,3.30
2019-03-25T12:41:04.611Z,3.10
2019-03-25T12:43:37.289Z,3.25
2019-03-25T12:46:09.810Z,2.42
2019-03-25T12:48:42.544Z,2.65
2019-03-25T12:53:23.047Z,3.52
2019-03-25T12:55:55.493Z,2.20
2019-03-25T13:00:59.837Z,2.60
2019-03-25T13:03:32.538Z,2.72
2019-03-25T13:06:04.876Z,2.60
2019-03-25T13:08:37.594Z,2.58
2019-03-25T13:11:10.028Z,3.40
2019-03-25T13:13:42.758Z,2.62
2019-03-25T13:16:15.326Z,2.77
2019-03-25T13:18:47.815Z,2.65
2019-03-25T13:21:21.619Z,3.05
2019-03-25T13:23:54.321Z,2.80
2019-03-25T13:26:26.660Z,1.98
2019-03-25T13:29:03.307Z,2.70
2019-03-25T13:31:35.779Z,2.00
2019-03-25T13:34:08.585Z,2.30
2019-03-25T13:36:41.278Z,2.10
2019-03-25T13:39:14.964Z,1.60
2019-03-25T13:41:47.384Z,1.77
2019-03-25T13:46:53.286Z,2.42
2019-03-25T13:49:25.652Z,1.75
2019-03-25T13:51:58.289Z,2.22
2019-03-25T13:54:31.298Z,2.02
2019-03-25T13:57:05.300Z,2.30
2019-03-25T13:59:37.692Z,1.90
2019-03-25T14:02:10.318Z,1.98
2019-03-25T14:04:44.007Z,2.08
2019-03-25T14:07:16.530Z,2.12
2019-03-25T14:09:48.798Z,1.98
2019-03-25T14:12:21.310Z,2.60
2019-03-25T14:14:57.217Z,2.55
2019-03-25T14:17:28.016Z,2.50
2019-03-25T14:20:00.594Z,2.72
2019-03-25T14:22:33.304Z,2.50
2019-03-25T14:25:06.486Z,2.17
2019-03-25T14:30:14.818Z,2.60
2019-03-25T14:32:46.286Z,2.70
2019-03-25T14:35:18.561Z,2.12
2019-03-25T14:37:51.029Z,1.70
2019-03-25T14:40:25.478Z,2.05
2019-03-25T14:42:57.622Z,2.40
2019-03-25T14:45:30.035Z,2.08
2019-03-25T14:48:02.462Z,2.30
2019-03-25T14:53:08.277Z,19.37
2019-03-25T14:55:40.566Z,9.13
2019-03-25T14:58:12.930Z,3.27
2019-03-25T15:00:45.424Z,2.12
2019-03-25T15:05:49.707Z,1.77
2019-03-25T15:08:22.298Z,1.75
2019-03-25T15:13:28.550Z,3.65
2019-03-25T15:16:01.141Z,5.95
2019-03-25T15:18:33.622Z,5.95
2019-03-25T15:21:06.832Z,1.40
2019-03-25T15:23:39.354Z,1.25
2019-03-25T15:26:13.404Z,1.65
2019-03-25T15:31:17.567Z,1.50
2019-03-25T15:33:50.362Z,1.50
2019-03-25T15:36:23.294Z,1.67
2019-03-25T15:38:58.412Z,1.62
2019-03-25T15:41:30.362Z,1.62
2019-03-25T15:46:34.405Z,1.98
2019-03-25T15:51:38.759Z,1.30
2019-03-25T15:54:11.333Z,1.57
2019-03-25T15:56:43.852Z,1.98
2019-03-25T15:59:16.372Z,1.45
2019-03-25T16:01:48.736Z,1.40
2019-03-25T16:04:21.305Z,1.37
2019-03-25T16:06:53.257Z,1.52
2019-03-25T16:09:30.044Z,1.40
2019-03-25T16:12:04.864Z,1.55
2019-03-25T16:17:16.551Z,1.42
2019-03-25T16:19:49.298Z,1.20
2019-03-25T16:22:21.890Z,2.98
2019-03-25T16:24:55.652Z,4.58
2019-03-25T17:32:17.337Z,1.60
2019-03-25T17:34:50.296Z,2.25
2019-03-25T17:37:22.841Z,1.60
2019-03-25T17:39:55.308Z,1.65
2019-03-25T17:42:27.745Z,0.90
2019-03-25T17:45:00.494Z,1.27
2019-03-25T17:47:33.320Z,2.55
2019-03-25T17:52:40.665Z,1.82
2019-03-25T17:55:14.303Z,1.70
2019-03-25T18:02:55.291Z,2.05
2019-03-25T18:05:27.690Z,1.40
2019-03-25T18:08:00.427Z,1.62
2019-03-25T18:13:04.457Z,1.12
2019-03-25T18:18:08.785Z,1.80
2019-03-25T18:20:41.310Z,1.90
2019-03-25T18:25:46.145Z,2.42
2019-03-25T18:28:20.446Z,2.05
2019-03-25T18:33:25.377Z,1.62
2019-03-25T18:35:57.752Z,1.60
2019-03-25T18:38:30.310Z,1.62
2019-03-25T18:41:02.429Z,1.80
2019-03-25T18:43:34.357Z,1.52
2019-03-25T18:46:06.739Z,1.60
2019-03-25T18:48:39.312Z,1.65
2019-03-25T18:53:43.618Z,1.75
2019-03-25T18:56:16.294Z,1.92
2019-03-25T18:58:49.078Z,1.67
2019-03-25T19:01:22.023Z,2.80
2019-03-25T19:04:00.818Z,1.85
2019-03-25T19:06:33.478Z,2.20
2019-03-25T19:11:39.657Z,2.15
2019-03-25T19:14:12.308Z,2.20
2019-03-25T19:16:44.853Z,2.00
2019-03-25T19:19:17.317Z,2.15
2019-03-25T19:21:49.839Z,2.10
2019-03-25T19:24:22.362Z,4.15
2019-03-25T19:26:54.850Z,3.50
2019-03-25T19:29:30.032Z,3.90
2019-03-25T19:32:06.814Z,2.92
2019-03-25T19:34:37.342Z,3.30
2019-03-25T19:42:13.794Z,2.67
2019-03-25T19:44:46.589Z,3.08
2019-03-25T19:47:19.497Z,2.33
2019-03-25T19:49:55.498Z,3.35
2019-03-25T19:52:28.380Z,3.08
2019-03-25T19:57:33.461Z,3.00
2019-03-25T20:00:09.370Z,3.00
2019-03-25T20:02:43.234Z,2.77
2019-03-25T20:05:16.339Z,3.02
2019-03-25T20:07:48.907Z,3.00
2019-03-25T20:10:30.822Z,2.60
2019-03-25T20:13:04.350Z,2.87
2019-03-25T20:15:45.938Z,2.30
2019-03-25T20:18:14.313Z,2.07
2019-03-25T20:20:47.295Z,1.57
2019-03-25T20:23:20.027Z,1.62
2019-03-25T20:25:52.530Z,1.67
2019-03-25T20:28:25.299Z,1.70
2019-03-25T20:30:58.325Z,1.35
2019-03-25T20:33:32.650Z,1.40
2019-03-25T20:36:08.454Z,1.82
2019-03-25T20:38:42.316Z,1.90
2019-03-25T20:41:15.090Z,1.40
2019-03-25T20:43:47.460Z,1.07
2019-03-25T20:46:19.980Z,1.42
2019-03-25T20:48:52.670Z,1.27
2019-03-25T20:51:25.348Z,1.40
2019-03-25T20:53:57.829Z,1.30
2019-03-25T20:56:30.560Z,1.67
2019-03-25T20:59:03.297Z,1.45
2019-03-25T21:01:35.670Z,1.77
2019-03-25T21:04:08.424Z,2.00
2019-03-25T21:06:40.858Z,3.37
2019-03-25T21:09:13.372Z,3.08
2019-03-25T21:11:45.695Z,2.50
2019-03-25T21:14:18.321Z,2.80
2019-03-25T21:16:50.749Z,2.70
2019-03-25T21:19:23.553Z,2.35
2019-03-25T21:21:55.980Z,2.20
2019-03-25T21:24:31.509Z,2.50
2019-03-25T21:29:35.684Z,2.50
2019-03-25T21:32:08.293Z,2.37
2019-03-25T21:34:40.737Z,2.30
2019-03-25T21:37:20.586Z,2.72
2019-03-25T21:39:53.305Z,3.02
2019-03-25T21:42:28.946Z,2.92
2019-03-25T21:45:00.309Z,2.80
2019-03-25T21:47:32.942Z,3.22
2019-03-25T21:50:07.371Z,2.92
2019-03-25T21:52:41.105Z,3.37
2019-03-25T21:55:13.730Z,3.40
2019-03-25T21:57:46.317Z,3.58
2019-03-25T22:00:19.157Z,3.85
2019-03-25T22:02:51.743Z,3.65
2019-03-25T22:05:24.325Z,4.17
2019-03-25T22:07:57.011Z,4.15
2019-03-25T22:10:29.433Z,4.28
2019-03-25T22:13:01.736Z,4.40
2019-03-25T22:15:34.297Z,4.45
2019-03-25T22:18:06.765Z,4.42
2019-03-25T22:20:39.614Z,4.40
2019-03-25T22:23:12.293Z,4.58
2019-03-25T22:25:45.555Z,4.72
2019-03-25T22:28:17.901Z,5.12
2019-03-25T22:30:50.363Z,5.40
2019-03-25T22:33:25.972Z,5.40
2019-03-25T22:38:30.329Z,6.67
2019-03-25T22:43:19.974Z,6.78
2019-03-25T22:45:52.381Z,7.22
2019-03-25T22:48:25.045Z,7.47
2019-03-25T22:51:00.405Z,7.67
2019-03-25T22:53:34.290Z,7.80
2019-03-25T22:56:06.565Z,7.65
2019-03-25T22:58:39.303Z,7.75
2019-03-25T23:01:11.822Z,8.48
2019-03-25T23:03:44.306Z,7.97
2019-03-25T23:08:35.855Z,9.18
2019-03-25T23:11:08.292Z,8.75
2019-03-25T23:13:40.623Z,8.90
2019-03-25T23:16:14.072Z,9.30
2019-03-25T23:18:46.486Z,9.15
2019-03-25T23:23:50.544Z,10.03
2019-03-25T23:26:23.292Z,8.93
2019-03-25T23:28:55.672Z,9.93
2019-03-25T23:31:28.290Z,9.50
2019-03-25T23:34:00.800Z,9.28
2019-03-25T23:36:33.304Z,8.73
2019-03-25T23:39:07.712Z,9.30
2019-03-25T23:41:40.289Z,9.55
2019-03-25T23:44:12.570Z,9.50
2019-03-25T23:49:28.325Z,9.28
2019-03-25T23:52:00.592Z,8.73
2019-03-25T23:54:33.056Z,9.20
2019-03-25T23:57:05.653Z,9.33
2019-03-25T23:59:38.293Z,9.63
